Time;durP1;ratioP1;P1;durP2;ratioP2;P2;SDS_P1;SDS_P2;PMS_P1;PMS_P2;Temp;Humidity;BMP_temperature;BMP_pressure;BME280_temperature;BME280_humidity;BME280_pressure;Samples;Min_cycle;Max_cycle;Signal;HPM_P1;HPM_P2
2024/01/30 00:01:58;;;;;;;13.23;4.78;;;;;;;5.31;100.00;101643.59;5058335;28;20548;-71
2024/01/30 00:04:25;;;;;;;13.23;5.38;;;;;;;5.29;100.00;101647.94;5052491;28;20056;-72
2024/01/30 00:06:52;;;;;;;12.63;3.67;;;;;;;5.16;100.00;101648.78;5058996;28;20509;-71
2024/01/30 00:09:19;;;;;;;12.18;3.35;;;;;;;5.26;100.00;101647.94;5066743;28;20533;-71
2024/01/30 00:11:46;;;;;;;15.75;3.97;;;;;;;5.23;100.00;101645.31;5068162;28;20050;-71
2024/01/30 00:14:13;;;;;;;13.40;3.70;;;;;;;5.25;100.00;101647.94;5067953;28;20048;-71
2024/01/30 00:16:40;;;;;;;9.15;3.60;;;;;;;5.30;100.00;101652.25;5067158;28;20460;-71
2024/01/30 00:19:08;;;;;;;13.35;4.50;;;;;;;5.22;100.00;101640.13;5061888;28;20048;-71
2024/01/30 00:21:35;;;;;;;10.80;3.42;;;;;;;5.42;100.00;101642.69;5062373;28;20053;-71
2024/01/30 00:24:02;;;;;;;13.20;3.33;;;;;;;5.31;100.00;101643.59;5059889;28;20052;-72
2024/01/30 00:26:28;;;;;;;21.75;5.07;;;;;;;5.32;100.00;101636.66;5057494;28;20051;-72
2024/01/30 00:28:55;;;;;;;15.80;4.63;;;;;;;5.33;100.00;101648.78;5070034;28;20041;-72
2024/01/30 00:31:22;;;;;;;13.77;4.53;;;;;;;5.22;100.00;101642.72;5068226;28;20059;-72
2024/01/30 00:33:48;;;;;;;9.80;3.97;;;;;;;5.30;100.00;101641.84;5069742;28;20135;-72
2024/01/30 00:36:15;;;;;;;10.35;3.22;;;;;;;5.16;100.00;101642.75;5055594;28;20099;-72
2024/01/30 00:38:42;;;;;;;12.90;3.80;;;;;;;5.12;100.00;101645.34;5067768;28;20036;-71
2024/01/30 00:41:09;;;;;;;11.30;3.88;;;;;;;5.04;100.00;101639.28;5068454;28;20061;-72
2024/01/30 00:43:36;;;;;;;12.13;3.85;;;;;;;4.92;100.00;101641.88;5068457;28;20122;-71
2024/01/30 00:46:03;;;;;;;12.73;3.78;;;;;;;4.90;100.00;101630.63;5060848;28;20379;-71
2024/01/30 00:48:30;;;;;;;10.93;3.53;;;;;;;4.91;100.00;101628.03;5075000;28;20055;-71
2024/01/30 00:50:56;;;;;;;11.00;3.50;;;;;;;4.98;100.00;101626.31;5067497;28;20048;-72
2024/01/30 00:53:23;;;;;;;14.10;4.07;;;;;;;4.98;100.00;101613.34;5068457;28;20539;-72
2024/01/30 00:55:50;;;;;;;10.35;4.10;;;;;;;5.01;100.00;101615.06;5069784;28;20151;-72
2024/01/30 00:58:19;;;;;;;12.25;3.47;;;;;;;5.03;100.00;101610.72;5069019;28;20072;-72
2024/01/30 01:00:46;;;;;;;11.23;3.60;;;;;;;5.01;100.00;101613.34;5068203;28;20139;-71
2024/01/30 01:03:13;;;;;;;12.93;3.35;;;;;;;5.09;100.00;101606.41;5069209;28;20480;-72
2024/01/30 01:05:40;;;;;;;8.68;3.05;;;;;;;5.09;100.00;101608.13;5054580;28;20049;-71
2024/01/30 01:08:07;;;;;;;12.70;3.85;;;;;;;5.09;100.00;101615.91;5068610;28;20041;-72
2024/01/30 01:10:34;;;;;;;9.82;3.00;;;;;;;5.11;100.00;101611.59;5066836;28;20060;-72
2024/01/30 01:13:00;;;;;;;10.15;3.30;;;;;;;5.09;100.00;101614.19;5068055;28;20048;-72
2024/01/30 01:15:27;;;;;;;12.98;3.60;;;;;;;4.98;100.00;101613.34;5068182;28;20467;-72
2024/01/30 01:17:56;;;;;;;10.07;3.10;;;;;;;4.95;100.00;101614.19;5069192;28;20048;-72
2024/01/30 01:20:22;;;;;;;10.18;3.70;;;;;;;4.90;100.00;101607.28;5068153;28;20060;-72
2024/01/30 01:22:49;;;;;;;13.75;3.58;;;;;;;4.95;100.00;101601.22;5068347;28;20134;-72
2024/01/30 01:25:16;;;;;;;9.07;3.08;;;;;;;4.99;100.00;101601.22;5068279;28;20049;-72
2024/01/30 01:27:44;;;;;;;10.52;3.53;;;;;;;4.95;100.00;101595.16;5069154;28;20083;-72
2024/01/30 01:30:13;;;;;;;13.10;3.83;;;;;;;4.92;100.00;101593.44;5065386;28;20490;-72
2024/01/30 01:32:49;;;;;;;11.10;4.10;;;;;;;4.65;100.00;101588.25;5068614;28;20055;-72
2024/01/30 01:35:15;;;;;;;12.82;2.95;;;;;;;4.79;100.00;101581.31;5068007;28;20048;-71
2024/01/30 01:37:42;;;;;;;13.00;3.65;;;;;;;4.80;100.00;101598.63;5068742;28;20099;-72
2024/01/30 01:40:09;;;;;;;16.52;3.38;;;;;;;4.78;100.00;101590.00;5068191;28;20045;-72
2024/01/30 01:42:36;;;;;;;8.38;2.80;;;;;;;4.87;100.00;101589.97;5068721;28;20062;-72
2024/01/30 01:45:03;;;;;;;11.05;2.72;;;;;;;4.96;100.00;101586.53;5068166;28;20448;-72
2024/01/30 01:47:29;;;;;;;11.05;3.90;;;;;;;4.96;100.00;101589.13;5069066;28;20056;-71
2024/01/30 01:49:56;;;;;;;13.88;3.97;;;;;;;4.91;100.00;101596.03;5071777;28;20405;-72
2024/01/30 01:52:23;;;;;;;12.80;3.28;;;;;;;5.02;100.00;101583.06;5068301;28;20049;-71
2024/01/30 01:54:50;;;;;;;20.63;3.33;;;;;;;4.84;100.00;101583.94;5055143;28;20486;-73
2024/01/30 01:57:17;;;;;;;11.70;3.30;;;;;;;4.76;100.00;101586.50;5067640;28;20130;-72
2024/01/30 01:59:44;;;;;;;10.10;2.95;;;;;;;4.93;100.00;101587.38;5073482;28;20079;-71
2024/01/30 02:02:12;;;;;;;12.48;3.40;;;;;;;4.84;100.00;101587.38;5071366;28;20056;-71
2024/01/30 02:04:39;;;;;;;14.68;4.38;;;;;;;4.74;100.00;101594.28;5065401;28;20044;-72
2024/01/30 02:07:06;;;;;;;9.10;3.33;;;;;;;4.61;100.00;101582.19;5070702;28;20139;-71
2024/01/30 02:09:33;;;;;;;9.88;3.40;;;;;;;4.69;100.00;101592.56;5064510;28;20494;-72
2024/01/30 02:12:00;;;;;;;12.15;3.97;;;;;;;4.74;100.00;101588.25;5062141;28;20070;-72
2024/01/30 02:14:26;;;;;;;8.15;3.05;;;;;;;4.83;100.00;101592.56;5071516;28;20052;-72
2024/01/30 02:16:57;;;;;;;12.25;3.55;;;;;;;4.74;100.00;101586.50;5072176;28;20415;-72
2024/01/30 02:19:23;;;;;;;12.90;3.60;;;;;;;4.72;100.00;101580.47;5070542;28;20045;-72
2024/01/30 02:21:50;;;;;;;14.60;3.60;;;;;;;4.70;100.00;101571.81;5071602;28;20128;-72
2024/01/30 02:24:17;;;;;;;8.95;2.78;;;;;;;4.57;100.00;101570.09;5070448;28;20044;-72
2024/01/30 02:26:44;;;;;;;9.00;2.60;;;;;;;4.67;100.00;101574.41;5057695;28;20061;-72
2024/01/30 02:29:10;;;;;;;10.70;3.20;;;;;;;4.82;100.00;101568.34;5070750;28;20040;-72
2024/01/30 02:31:37;;;;;;;10.07;2.78;;;;;;;4.83;100.00;101567.47;5071935;28;20130;-72
2024/01/30 02:34:04;;;;;;;12.50;3.42;;;;;;;4.89;100.00;101569.22;5071598;28;20067;-72
2024/01/30 02:36:31;;;;;;;9.15;2.67;;;;;;;4.93;100.00;101561.41;5057009;28;20060;-72
2024/01/30 02:38:57;;;;;;;9.73;2.72;;;;;;;4.86;100.00;101562.28;5069878;28;20040;-72
2024/01/30 02:41:24;;;;;;;12.60;2.92;;;;;;;4.86;100.00;101551.06;5057502;28;20053;-72
2024/01/30 02:43:51;;;;;;;11.60;3.00;;;;;;;4.79;100.00;101555.38;5074003;28;20521;-72
2024/01/30 02:46:17;;;;;;;12.73;3.17;;;;;;;4.65;100.00;101549.34;5071602;28;20052;-72
2024/01/30 02:48:44;;;;;;;10.13;2.90;;;;;;;4.75;100.00;101551.06;5070637;28;20057;-72
2024/01/30 02:51:11;;;;;;;11.10;3.00;;;;;;;4.80;100.00;101543.25;5069769;28;20056;-73
2024/01/30 02:53:38;;;;;;;11.95;3.30;;;;;;;4.72;100.00;101551.91;5070593;28;20056;-73
2024/01/30 02:56:05;;;;;;;11.77;3.53;;;;;;;4.65;100.00;101528.59;5069962;28;20053;-73
2024/01/30 02:58:32;;;;;;;8.95;2.80;;;;;;;4.54;100.00;101547.59;5071572;28;20135;-72
2024/01/30 03:00:59;;;;;;;10.82;2.65;;;;;;;4.50;100.00;101538.09;5062361;28;20048;-73
2024/01/30 03:03:26;;;;;;;8.63;2.50;;;;;;;4.38;100.00;101536.34;5064902;28;20131;-73
2024/01/30 03:05:53;;;;;;;15.38;3.53;;;;;;;4.17;100.00;101537.19;5056728;28;20100;-72
2024/01/30 03:08:19;;;;;;;15.52;3.50;;;;;;;3.86;100.00;101525.91;5070247;28;20094;-72
2024/01/30 03:10:46;;;;;;;12.13;2.80;;;;;;;3.96;100.00;101527.63;5068130;28;20063;-72
2024/01/30 03:13:13;;;;;;;11.23;4.18;;;;;;;3.97;100.00;101528.53;5071672;28;20059;-72
2024/01/30 03:15:40;;;;;;;10.55;3.40;;;;;;;3.99;100.00;101527.66;5067018;28;20052;-72
2024/01/30 03:18:07;;;;;;;10.80;3.17;;;;;;;4.02;100.00;101528.50;5070934;28;20405;-72
2024/01/30 03:20:34;;;;;;;13.20;3.63;;;;;;;3.97;100.00;101528.53;5061589;28;20052;-74
2024/01/30 03:23:01;;;;;;;10.82;2.90;;;;;;;3.90;100.00;101527.63;5067192;28;20051;-72
2024/01/30 03:25:27;;;;;;;14.18;2.47;;;;;;;4.02;100.00;101520.75;5059271;28;20059;-72
2024/01/30 03:27:54;;;;;;;10.10;2.58;;;;;;;4.01;100.00;101512.13;5070722;28;20067;-72
2024/01/30 03:30:21;;;;;;;10.50;2.95;;;;;;;4.16;100.00;101519.91;5070618;28;20048;-72
2024/01/30 03:32:48;;;;;;;8.57;2.35;;;;;;;4.26;100.00;101525.09;5071388;28;20175;-72
2024/01/30 03:35:15;;;;;;;10.57;2.97;;;;;;;4.14;100.00;101510.41;5071063;28;20676;-73
2024/01/30 03:37:41;;;;;;;14.32;3.58;;;;;;;4.01;100.00;101512.13;5070590;28;20052;-72
2024/01/30 03:40:08;;;;;;;10.30;3.03;;;;;;;3.93;100.00;101506.94;5067325;28;20059;-72
2024/01/30 03:42:35;;;;;;;8.20;2.60;;;;;;;3.78;100.00;101499.09;5071381;28;20044;-72
2024/01/30 03:45:02;;;;;;;12.43;3.75;;;;;;;3.77;100.00;101512.91;5069076;28;20056;-73
2024/01/30 03:47:29;;;;;;;9.88;3.00;;;;;;;3.88;100.00;101507.75;5069919;28;20478;-72
2024/01/30 03:49:55;;;;;;;8.20;2.95;;;;;;;3.82;100.00;101516.38;5064833;28;20066;-72
2024/01/30 03:52:22;;;;;;;13.77;2.90;;;;;;;3.74;100.00;101505.16;5061493;28;20140;-72
2024/01/30 03:54:49;;;;;;;15.48;4.00;;;;;;;3.70;100.00;101512.03;5065642;28;20462;-72
2024/01/30 03:57:16;;;;;;;12.23;3.85;;;;;;;3.76;100.00;101504.28;5066926;28;20048;-71
2024/01/30 03:59:43;;;;;;;9.75;3.38;;;;;;;3.89;100.00;101510.34;5068081;28;20051;-72
2024/01/30 04:02:11;;;;;;;9.32;2.90;;;;;;;3.83;100.00;101510.34;5069937;28;20059;-71
2024/01/30 04:04:38;;;;;;;6.47;2.20;;;;;;;3.86;100.00;101509.47;5070097;28;20053;-72
2024/01/30 04:07:05;;;;;;;10.35;2.50;;;;;;;3.61;100.00;101509.41;5068810;28;20051;-71
2024/01/30 04:09:32;;;;;;;9.82;3.08;;;;;;;3.68;100.00;101502.53;5067855;28;20123;-72
2024/01/30 04:11:59;;;;;;;8.57;2.35;;;;;;;3.64;100.00;101508.56;5054942;28;20044;-71
2024/01/30 04:14:26;;;;;;;10.93;2.60;;;;;;;3.42;100.00;101503.31;5059140;28;20056;-72
2024/01/30 04:16:52;;;;;;;12.80;2.47;;;;;;;3.37;100.00;101505.00;5065844;28;20094;-71
2024/01/30 04:19:19;;;;;;;9.18;2.53;;;;;;;3.34;100.00;101502.41;5076475;28;20046;-72
2024/01/30 04:21:46;;;;;;;8.68;3.13;;;;;;;3.36;100.00;101508.44;5057924;28;20059;-71
2024/01/30 04:24:13;;;;;;;8.05;2.92;;;;;;;3.44;100.00;101500.72;5051582;28;20063;-72
2024/01/30 04:26:39;;;;;;;10.05;2.70;;;;;;;3.42;100.00;101511.94;5058271;28;20087;-72
2024/01/30 04:29:06;;;;;;;12.75;4.53;;;;;;;3.22;100.00;101511.84;5066465;28;20036;-72
2024/01/30 04:31:33;;;;;;;7.80;2.72;;;;;;;3.21;100.00;101502.34;5060159;28;20100;-71
2024/01/30 04:33:59;;;;;;;8.50;2.80;;;;;;;3.26;100.00;101488.53;5067251;28;20053;-72
2024/01/30 04:36:26;;;;;;;10.90;2.53;;;;;;;3.34;100.00;101502.41;5058296;28;20060;-72
2024/01/30 04:38:53;;;;;;;11.00;2.58;;;;;;;3.23;100.00;101495.44;5068402;28;20394;-72
2024/01/30 04:41:19;;;;;;;9.68;2.70;;;;;;;3.34;100.00;101504.97;5061111;28;20063;-72
2024/01/30 04:43:46;;;;;;;7.40;2.50;;;;;;;3.37;100.00;101497.25;5060486;28;20048;-72
2024/01/30 04:46:13;;;;;;;11.13;3.67;;;;;;;3.04;100.00;101503.97;5066670;28;20139;-72
2024/01/30 04:48:39;;;;;;;11.10;3.33;;;;;;;2.94;100.00;101502.16;5068668;28;20067;-72
2024/01/30 04:51:06;;;;;;;8.43;2.90;;;;;;;3.05;100.00;101497.94;5065805;28;20045;-73
2024/01/30 04:53:33;;;;;;;11.20;2.35;;;;;;;3.12;100.00;101507.47;5083105;28;20059;-72
2024/01/30 04:56:00;;;;;;;10.75;2.50;;;;;;;2.77;100.00;101502.06;5064525;28;20056;-73
2024/01/30 04:58:26;;;;;;;12.55;2.63;;;;;;;3.00;100.00;101508.25;5067309;28;20052;-72
2024/01/30 05:00:53;;;;;;;7.57;2.55;;;;;;;3.10;100.00;101509.19;5066412;28;20057;-73
2024/01/30 05:03:22;;;;;;;6.32;2.20;;;;;;;3.11;100.00;101499.69;5068989;28;20118;-72
2024/01/30 05:05:49;;;;;;;10.30;2.40;;;;;;;3.29;100.00;101504.94;5067250;28;20057;-72
2024/01/30 05:08:16;;;;;;;7.25;2.17;;;;;;;3.32;100.00;101512.75;5069078;28;20056;-73
2024/01/30 05:10:42;;;;;;;9.15;2.50;;;;;;;3.30;100.00;101524.81;5058139;28;20056;-73
2024/01/30 05:13:09;;;;;;;8.23;2.38;;;;;;;3.29;100.00;101523.06;5065212;28;20129;-71
2024/01/30 05:15:36;;;;;;;10.20;2.40;;;;;;;3.25;100.00;101526.50;5069306;28;20048;-71
2024/01/30 05:18:03;;;;;;;8.68;2.25;;;;;;;3.31;100.00;101526.56;5075450;28;20048;-71
2024/01/30 05:20:30;;;;;;;11.27;2.50;;;;;;;3.04;100.00;101522.94;5066984;28;20106;-72
2024/01/30 05:22:56;;;;;;;8.98;2.88;;;;;;;3.13;100.00;101509.19;5058357;28;20048;-71
2024/01/30 05:25:23;;;;;;;6.07;2.35;;;;;;;3.24;100.00;101517.03;5066251;28;20048;-71
2024/01/30 05:27:50;;;;;;;7.13;2.25;;;;;;;3.31;100.00;101528.25;5058174;28;20045;-71
2024/01/30 05:30:16;;;;;;;7.50;2.42;;;;;;;3.33;100.00;101532.59;5064997;28;20036;-71
2024/01/30 05:32:43;;;;;;;11.07;2.88;;;;;;;3.28;100.00;101528.25;5059430;28;20057;-71
2024/01/30 05:35:10;;;;;;;8.55;2.47;;;;;;;3.20;100.00;101529.06;5065901;28;20170;-72
2024/01/30 05:37:37;;;;;;;8.18;2.40;;;;;;;3.17;100.00;101530.75;5051685;28;20053;-72
2024/01/30 05:40:05;;;;;;;8.13;2.50;;;;;;;3.11;100.00;101529.00;5064402;28;20783;-73
2024/01/30 05:42:31;;;;;;;7.38;2.60;;;;;;;2.93;100.00;101526.31;5070632;28;20055;-73
2024/01/30 05:44:58;;;;;;;7.68;2.28;;;;;;;3.03;100.00;101535.88;5060440;28;20382;-73
2024/01/30 05:47:25;;;;;;;9.60;2.10;;;;;;;3.01;100.00;101537.56;5069124;28;20135;-72
2024/01/30 05:49:51;;;;;;;10.02;3.50;;;;;;;2.86;100.00;101528.00;5080177;28;20041;-73
2024/01/30 05:52:19;;;;;;;8.30;2.55;;;;;;;2.89;100.00;101529.75;5070306;28;20075;-72
2024/01/30 05:54:45;;;;;;;11.57;2.85;;;;;;;2.57;100.00;101540.72;5060752;28;20413;-73
2024/01/30 05:57:12;;;;;;;9.73;2.67;;;;;;;2.71;100.00;101533.06;5072070;28;20482;-72
2024/01/30 05:59:39;;;;;;;8.55;2.78;;;;;;;2.62;100.00;101531.25;5065835;28;20052;-73
2024/01/30 06:02:07;;;;;;;9.27;2.47;;;;;;;2.65;100.00;101536.47;5072196;28;20066;-73
2024/01/30 06:04:34;;;;;;;8.85;2.10;;;;;;;2.56;100.00;101537.25;5070251;28;20402;-73
2024/01/30 06:07:01;;;;;;;8.40;2.97;;;;;;;2.56;100.00;101538.97;5052546;28;20538;-73
2024/01/30 06:09:29;;;;;;;9.13;2.47;;;;;;;2.37;100.00;101540.53;5064571;28;20041;-73
2024/01/30 06:11:55;;;;;;;6.18;2.10;;;;;;;2.39;100.00;101536.25;5071964;28;20056;-73
2024/01/30 06:14:22;;;;;;;7.32;2.97;;;;;;;2.28;100.00;101538.72;5072393;28;20509;-73
2024/01/30 06:16:49;;;;;;;6.75;2.40;;;;;;;2.14;100.00;101543.75;5071854;28;20052;-73
2024/01/30 06:19:15;;;;;;;8.02;2.40;;;;;;;2.22;100.00;101538.69;5067426;28;20048;-72
2024/01/30 06:21:42;;;;;;;11.10;3.80;;;;;;;2.26;100.00;101550.78;5072264;28;20520;-71
2024/01/30 06:24:09;;;;;;;10.15;3.33;;;;;;;2.19;100.00;101557.59;5071775;28;20547;-71
2024/01/30 06:26:35;;;;;;;7.90;3.05;;;;;;;2.06;100.00;101556.59;5071578;28;20059;-71
2024/01/30 06:29:02;;;;;;;11.57;3.85;;;;;;;2.07;100.00;101566.09;5073877;28;20048;-71
2024/01/30 06:31:29;;;;;;;11.75;2.78;;;;;;;2.26;100.00;101569.72;5071541;28;20495;-72
2024/01/30 06:33:56;;;;;;;9.00;2.60;;;;;;;2.29;100.00;101571.47;5072172;28;20075;-72
2024/01/30 06:36:23;;;;;;;12.13;3.13;;;;;;;2.25;100.00;101569.72;5068161;28;20048;-71
2024/01/30 06:38:49;;;;;;;8.55;2.63;;;;;;;2.35;100.00;101563.78;5053928;28;20060;-72
2024/01/30 06:41:16;;;;;;;10.55;3.00;;;;;;;2.37;100.00;101566.38;5058986;28;20483;-73
2024/01/30 06:43:45;;;;;;;6.10;2.13;;;;;;;2.32;100.00;101562.88;5053191;28;20079;-72
2024/01/30 06:46:12;;;;;;;6.75;2.35;;;;;;;2.33;100.00;101577.53;5071630;28;20158;-72
2024/01/30 06:48:40;;;;;;;9.02;2.53;;;;;;;2.27;100.00;101571.47;5076417;28;20148;-72
2024/01/30 06:51:07;;;;;;;5.88;2.00;;;;;;;2.36;100.00;101581.03;5070885;28;20040;-73
2024/01/30 06:53:34;;;;;;;6.60;2.35;;;;;;;2.33;100.00;101582.72;5063896;28;20114;-73
2024/01/30 06:56:00;;;;;;;9.70;3.08;;;;;;;2.13;100.00;101585.97;5061774;28;20561;-73
2024/01/30 06:58:27;;;;;;;12.23;2.28;;;;;;;2.01;100.00;101580.66;5061165;28;20516;-72
2024/01/30 07:00:54;;;;;;;7.60;2.40;;;;;;;1.89;100.00;101578.78;5063338;28;20153;-73
2024/01/30 07:03:21;;;;;;;5.40;1.83;;;;;;;1.82;100.00;101588.16;5062496;28;20052;-72
2024/01/30 07:05:48;;;;;;;7.30;2.38;;;;;;;1.83;100.00;101591.66;5067852;28;20448;-72
2024/01/30 07:08:17;;;;;;;7.63;2.50;;;;;;;1.82;100.00;101602.81;5056510;28;20561;-72
2024/01/30 07:10:44;;;;;;;11.15;2.45;;;;;;;1.99;100.00;101598.72;5068334;28;20090;-71
2024/01/30 07:13:11;;;;;;;7.78;2.50;;;;;;;1.98;100.00;101607.31;5058644;28;20479;-72
2024/01/30 07:15:38;;;;;;;7.38;2.78;;;;;;;1.95;100.00;101612.47;5059962;28;20055;-72
2024/01/30 07:18:05;;;;;;;5.88;1.83;;;;;;;2.06;100.00;101602.25;5074374;28;20367;-72
2024/01/30 07:20:32;;;;;;;8.52;2.55;;;;;;;1.95;100.00;101622.78;5061416;28;20051;-72
2024/01/30 07:22:59;;;;;;;6.82;2.28;;;;;;;1.93;100.00;101606.41;5063631;28;20048;-72
2024/01/30 07:25:29;;;;;;;8.00;2.15;;;;;;;1.86;100.00;101623.53;5054482;28;20052;-72
2024/01/30 07:27:57;;;;;;;5.43;1.75;;;;;;;1.77;100.00;101612.22;5056958;28;20525;-72
2024/01/30 07:30:24;;;;;;;8.75;2.38;;;;;;;1.75;100.00;101612.19;5065261;28;20051;-72
2024/01/30 07:32:51;;;;;;;8.95;2.40;;;;;;;1.71;100.00;101615.59;5059235;28;20051;-72
2024/01/30 07:35:18;;;;;;;7.20;2.00;;;;;;;1.86;100.00;101625.22;5069235;28;20478;-72
2024/01/30 07:37:45;;;;;;;8.15;2.00;;;;;;;1.88;100.00;101623.56;5068434;28;20056;-72
2024/01/30 07:40:12;;;;;;;6.72;2.38;;;;;;;1.97;100.00;101634.00;5063931;28;20053;-72
2024/01/30 07:42:38;;;;;;;5.78;2.10;;;;;;;1.79;100.00;101634.63;5065481;28;20045;-72
2024/01/30 07:45:05;;;;;;;8.98;2.40;;;;;;;1.44;100.00;101616.94;5064436;28;20136;-71
2024/01/30 07:47:32;;;;;;;6.15;2.17;;;;;;;1.65;100.00;101636.19;5064694;28;20052;-72
2024/01/30 07:49:59;;;;;;;8.50;2.40;;;;;;;1.88;100.00;101646.81;5065545;28;20072;-71
2024/01/30 07:52:26;;;;;;;6.15;1.90;;;;;;;1.69;100.00;101633.63;5060551;28;20482;-71
2024/01/30 07:54:53;;;;;;;7.18;2.38;;;;;;;1.74;100.00;101646.63;5058088;28;20121;-71
2024/01/30 07:57:19;;;;;;;7.32;2.13;;;;;;;1.65;100.00;101642.19;5052512;28;20106;-71
2024/01/30 07:59:46;;;;;;;12.50;2.28;;;;;;;1.51;100.00;101654.91;5068876;28;20359;-73
2024/01/30 08:02:13;;;;;;;10.75;2.85;;;;;;;1.42;100.00;101644.47;5052432;28;20045;-71
2024/01/30 08:04:40;;;;;;;19.02;16.40;;;;;;;1.55;100.00;101660.13;5055524;28;20123;-71
2024/01/30 08:07:07;;;;;;;12.50;5.00;;;;;;;1.59;100.00;101657.59;5068801;28;20049;-71
2024/01/30 08:09:34;;;;;;;13.73;3.00;;;;;;;1.68;100.00;101650.00;5067691;28;20056;-72
2024/01/30 08:12:01;;;;;;;10.23;3.10;;;;;;;1.54;100.00;101655.78;5067734;28;20063;-72
2024/01/30 08:14:28;;;;;;;9.85;2.67;;;;;;;1.51;100.00;101660.06;5058087;28;20147;-72
2024/01/30 08:16:55;;;;;;;7.95;2.40;;;;;;;1.48;100.00;101652.28;5069575;28;20052;-72
2024/01/30 08:19:22;;;;;;;6.97;2.40;;;;;;;1.50;100.00;101650.56;5063496;28;20500;-72
2024/01/30 08:21:48;;;;;;;8.68;2.63;;;;;;;1.58;100.00;101655.00;5067932;28;20756;-72
2024/01/30 08:24:15;;;;;;;5.95;2.25;;;;;;;1.59;100.00;101659.31;5066946;28;20068;-72
2024/01/30 08:26:42;;;;;;;8.00;2.03;;;;;;;1.58;100.00;101655.88;5067303;28;20109;-72
2024/01/30 08:29:09;;;;;;;10.10;2.40;;;;;;;1.54;100.00;101663.53;5066610;28;20048;-72
2024/01/30 08:31:36;;;;;;;8.52;2.17;;;;;;;1.48;100.00;101672.06;5067690;28;20524;-72
2024/01/30 08:34:02;;;;;;;4.97;1.95;;;;;;;1.46;100.00;101672.03;5067057;28;20260;-72
2024/01/30 08:36:29;;;;;;;8.40;1.75;;;;;;;1.44;100.00;101683.19;5068022;28;20053;-73
2024/01/30 08:38:56;;;;;;;11.73;2.92;;;;;;;1.47;100.00;101681.53;5068652;28;20438;-72
2024/01/30 08:41:28;;;;;;;6.57;1.95;;;;;;;1.44;100.00;101680.63;5066328;28;20044;-72
2024/01/30 08:43:55;;;;;;;10.15;2.97;;;;;;;1.45;100.00;101680.63;5056437;28;20045;-72
2024/01/30 08:46:22;;;;;;;11.55;2.92;;;;;;;1.58;100.00;101692.00;5059993;28;20066;-73
2024/01/30 08:48:49;;;;;;;10.10;2.20;;;;;;;2.05;100.00;101689.22;5068260;28;20048;-72
2024/01/30 08:51:16;;;;;;;7.90;2.47;;;;;;;2.35;100.00;101697.31;5067890;28;20052;-72
2024/01/30 08:53:42;;;;;;;12.25;2.75;;;;;;;2.45;100.00;101694.84;5055756;28;20102;-71
2024/01/30 08:56:09;;;;;;;15.52;2.30;;;;;;;2.78;100.00;101690.00;5055677;28;20056;-72
2024/01/30 08:58:36;;;;;;;11.50;3.03;;;;;;;3.03;100.00;101684.22;5069727;28;20076;-72
2024/01/30 09:01:05;;;;;;;8.77;2.17;;;;;;;3.31;100.00;101691.34;5069429;28;20044;-71
2024/01/30 09:03:32;;;;;;;5.80;1.75;;;;;;;3.48;100.00;101705.28;5059147;28;20053;-72
2024/01/30 09:05:58;;;;;;;7.43;1.80;;;;;;;3.47;100.00;101698.38;5053843;28;20053;-71
2024/01/30 09:08:25;;;;;;;6.93;1.77;;;;;;;3.78;100.00;101698.56;5070084;28;20044;-71
2024/01/30 09:10:52;;;;;;;7.68;2.28;;;;;;;3.61;100.00;101706.22;5061928;28;20044;-70
2024/01/30 09:13:19;;;;;;;8.65;1.88;;;;;;;3.60;100.00;101701.91;5070040;28;20489;-71
2024/01/30 09:15:46;;;;;;;6.93;1.85;;;;;;;3.78;100.00;101706.34;5074021;28;20097;-71
2024/01/30 09:18:12;;;;;;;6.95;1.80;;;;;;;3.51;100.00;101697.53;5060552;28;20049;-72
2024/01/30 09:20:39;;;;;;;8.13;2.17;;;;;;;3.13;100.00;101702.41;5070955;28;20504;-72
2024/01/30 09:23:06;;;;;;;6.60;2.42;;;;;;;3.04;100.00;101687.66;5073498;28;20132;-71
2024/01/30 09:25:33;;;;;;;6.30;1.75;;;;;;;2.83;100.00;101694.41;5072661;28;20041;-72
2024/01/30 09:28:00;;;;;;;6.30;1.98;;;;;;;2.76;100.00;101692.59;5073466;28;20049;-72
2024/01/30 09:30:27;;;;;;;7.28;2.00;;;;;;;2.78;100.00;101690.91;5072873;28;20052;-72
2024/01/30 09:32:54;;;;;;;6.60;1.80;;;;;;;2.75;100.00;101679.66;5073084;28;20139;-72
2024/01/30 09:35:21;;;;;;;9.75;2.00;;;;;;;2.80;100.00;101690.91;5059500;28;20152;-71
2024/01/30 09:37:48;;;;;;;7.20;2.33;;;;;;;2.98;100.00;101685.03;5073414;28;20048;-72
2024/01/30 09:40:18;;;;;;;8.95;1.80;;;;;;;2.88;100.00;101678.03;5070747;28;20045;-72
2024/01/30 09:42:48;;;;;;;7.38;1.80;;;;;;;3.04;100.00;101675.59;5065410;28;20062;-72
2024/01/30 09:45:17;;;;;;;8.13;2.20;;;;;;;3.04;100.00;101669.56;5067386;28;20086;-72
2024/01/30 09:47:45;;;;;;;10.55;2.38;;;;;;;2.98;100.00;101669.53;5073378;28;20385;-72
2024/01/30 09:50:14;;;;;;;6.90;2.00;;;;;;;3.08;100.00;101667.88;5072378;28;20064;-71
2024/01/30 09:52:42;;;;;;;9.85;2.20;;;;;;;3.14;100.00;101662.75;5067840;28;20052;-72
2024/01/30 09:55:09;;;;;;;6.30;1.75;;;;;;;3.19;100.00;101654.16;5072593;28;20199;-72
2024/01/30 09:57:36;;;;;;;8.00;2.78;;;;;;;3.09;100.00;101667.88;5059084;28;20052;-72
2024/01/30 10:00:04;;;;;;;8.75;2.15;;;;;;;3.13;100.00;101679.97;5071452;28;20471;-72
2024/01/30 10:02:34;;;;;;;8.77;1.98;;;;;;;3.16;100.00;101690.38;5058977;28;20072;-72
2024/01/30 10:05:01;;;;;;;6.82;2.20;;;;;;;3.28;100.00;101691.34;5073231;28;20127;-72
2024/01/30 10:07:29;;;;;;;7.50;2.10;;;;;;;3.45;100.00;101684.53;5073280;28;20059;-72
2024/01/30 10:09:56;;;;;;;7.93;2.22;;;;;;;3.58;100.00;101683.78;5069552;28;20059;-72
2024/01/30 10:12:26;;;;;;;7.28;2.03;;;;;;;3.53;100.00;101685.47;5061348;28;20060;-72
2024/01/30 10:14:53;;;;;;;4.88;1.70;;;;;;;3.68;100.00;101681.22;5068938;28;20552;-72
2024/01/30 10:17:21;;;;;;;9.15;3.13;;;;;;;3.71;100.00;101679.53;5072872;28;20475;-72
2024/01/30 10:19:59;;;;;;;9.05;2.50;;;;;;;3.71;100.00;101687.28;5066917;28;20497;-72
2024/01/30 10:22:26;;;;;;;7.20;1.90;;;;;;;3.70;100.00;101689.88;5071980;28;20063;-72
2024/01/30 10:24:53;;;;;;;12.88;2.55;;;;;;;3.77;100.00;101694.22;5071440;28;20048;-72
2024/01/30 10:27:29;;;;;;;7.10;2.28;;;;;;;3.86;100.00;101690.81;5071691;28;20080;-72
2024/01/30 10:29:56;;;;;;;10.82;2.30;;;;;;;3.98;100.00;101696.06;5069270;28;20123;-73
2024/01/30 10:32:23;;;;;;;10.20;2.25;;;;;;;4.03;100.00;101684.00;5072008;28;20566;-72
2024/01/30 10:34:51;;;;;;;8.15;2.15;;;;;;;3.83;100.00;101690.84;5072432;28;20080;-72
2024/01/30 10:37:21;;;;;;;11.90;2.20;;;;;;;3.73;100.00;101700.25;5072239;28;20127;-72
2024/01/30 10:39:50;;;;;;;9.90;2.10;;;;;;;4.05;100.00;101699.56;5070715;28;20051;-72
2024/01/30 10:42:18;;;;;;;12.73;2.10;;;;;;;4.21;100.00;101703.09;5057890;28;20052;-72
2024/01/30 10:44:53;;;;;;;9.60;1.92;;;;;;;4.36;100.00;101704.03;5072466;28;20049;-72
2024/01/30 10:47:26;;;;;;;7.90;2.00;;;;;;;4.46;100.00;101702.34;5069909;28;20490;-72
2024/01/30 10:49:54;;;;;;;6.18;2.00;;;;;;;4.46;100.00;101701.47;5070603;28;20131;-74
2024/01/30 10:52:25;;;;;;;8.20;2.13;;;;;;;4.50;100.00;101698.03;5063645;28;20055;-72
2024/01/30 10:54:54;;;;;;;6.05;2.00;;;;;;;4.54;100.00;101692.84;5062530;28;20053;-72
2024/01/30 10:57:24;;;;;;;8.98;2.15;;;;;;;4.47;100.00;101691.09;5066100;28;20060;-72
2024/01/30 11:00:05;;;;;;;6.72;1.90;;;;;;;4.66;100.00;101701.53;5063014;28;20044;-72
2024/01/30 11:02:33;;;;;;;6.32;1.92;;;;;;;4.50;100.00;101708.41;5053736;28;20060;-72
2024/01/30 11:05:00;;;;;;;6.13;1.88;;;;;;;4.67;100.00;101713.63;5055989;28;20135;-72
2024/01/30 11:07:29;;;;;;;10.25;2.28;;;;;;;4.74;100.00;101712.78;5071426;28;20056;-72
2024/01/30 11:10:03;;;;;;;11.02;2.03;;;;;;;4.76;100.00;101718.81;5069929;28;20072;-72
2024/01/30 11:12:35;;;;;;;9.85;2.75;;;;;;;4.68;100.00;101718.81;5071722;28;20102;-72
2024/01/30 11:15:07;;;;;;;9.40;2.17;;;;;;;4.75;100.00;101717.13;5068464;28;20049;-72
2024/01/30 11:17:49;;;;;;;8.55;2.53;;;;;;;4.73;100.00;101724.88;5069013;28;20133;-72
2024/01/30 11:20:25;;;;;;;10.35;3.00;;;;;;;4.80;100.00;101720.59;5064097;28;20131;-72
2024/01/30 11:22:54;;;;;;;10.07;2.25;;;;;;;4.93;100.00;101714.53;5063456;28;20457;-72